Time,TemperatureF,DewpointF,PressureIn,WindDirection,WindDirectionDegrees,WindSpeedMPH,WindSpeedGustMPH,Humidity,HourlyPrecipIn,Conditions,Clouds,dailyrainin,SolarRadiationWatts/m^2,SoftwareType,DateUTC
2013-06-15 00:02:00,63.0,58.0,-100.00,NNW,347,5.0,21.0,83,0.00,,,0.06,0.000000,,2013-06-15 10:02:00,
2013-06-15 00:11:00,63.0,58.0,-100.00,NNW,347,5.0,21.0,83,0.00,,,0.06,0.000000,,2013-06-15 10:11:00,
2013-06-15 00:23:00,63.0,58.0,-100.00,NNW,347,5.0,21.0,83,0.00,,,0.06,0.000000,,2013-06-15 10:23:00,
2013-06-15 00:33:00,63.0,58.0,-100.00,NNW,347,5.0,21.0,83,0.00,,,0.06,0.000000,,2013-06-15 10:33:00,
2013-06-15 01:01:00,64.0,58.0,-100.00,South,175,4.0,12.0,81,0.00,,,0.06,0.000000,,2013-06-15 11:01:00,
2013-06-15 01:11:00,64.0,58.0,-100.00,South,175,4.0,12.0,81,0.00,,,0.06,0.000000,,2013-06-15 11:11:00,
2013-06-15 01:22:00,64.0,58.0,-100.00,South,175,4.0,12.0,81,0.00,,,0.06,0.000000,,2013-06-15 11:22:00,
2013-06-15 01:33:00,64.0,58.0,-100.00,South,175,4.0,12.0,81,0.00,,,0.06,0.000000,,2013-06-15 11:33:00,
2013-06-15 02:01:00,63.0,57.0,-100.00,WSW,256,2.0,13.0,81,0.00,,,0.05,0.000000,,2013-06-15 12:01:00,
2013-06-15 02:11:00,63.0,57.0,-100.00,WSW,256,2.0,13.0,81,0.00,,,0.05,0.000000,,2013-06-15 12:11:00,
2013-06-15 02:22:00,63.0,57.0,-100.00,WSW,256,2.0,13.0,81,0.00,,,0.05,0.000000,,2013-06-15 12:22:00,
2013-06-15 02:33:00,63.0,57.0,-100.00,WSW,256,2.0,13.0,81,0.00,,,0.05,0.000000,,2013-06-15 12:33:00,
2013-06-15 03:02:00,62.0,57.0,-100.00,SSW,210,3.0,12.0,84,0.00,,,0.04,0.000000,,2013-06-15 13:02:00,
2013-06-15 03:11:00,62.0,57.0,-100.00,SSW,210,3.0,12.0,84,0.00,,,0.04,0.000000,,2013-06-15 13:11:00,
2013-06-15 03:22:00,62.0,57.0,-100.00,SSW,210,3.0,12.0,84,0.00,,,0.04,0.000000,,2013-06-15 13:22:00,
2013-06-15 03:32:00,62.0,57.0,-100.00,SSW,210,3.0,12.0,84,0.00,,,0.04,0.000000,,2013-06-15 13:32:00,
2013-06-15 04:01:00,62.0,57.0,-100.00,East,100,3.0,8.0,84,0.00,,,0.03,0.000000,,2013-06-15 14:01:00,
2013-06-15 04:12:00,62.0,57.0,-100.00,East,100,3.0,8.0,84,0.00,,,0.03,0.000000,,2013-06-15 14:12:00,
2013-06-15 04:22:00,62.0,57.0,-100.00,East,100,3.0,8.0,84,0.00,,,0.03,0.000000,,2013-06-15 14:22:00,
2013-06-15 04:34:00,62.0,57.0,-100.00,East,100,3.0,8.0,84,0.00,,,0.03,0.000000,,2013-06-15 14:34:00,
2013-06-15 05:01:00,64.0,60.0,-100.00,ESE,110,2.0,14.0,87,0.00,,,0.02,0.000000,,2013-06-15 15:01:00,
2013-06-15 05:11:00,64.0,60.0,-100.00,ESE,110,2.0,14.0,87,0.00,,,0.02,0.000000,,2013-06-15 15:11:00,
2013-06-15 05:22:00,64.0,60.0,-100.00,ESE,110,2.0,14.0,87,0.00,,,0.02,0.000000,,2013-06-15 15:22:00,
2013-06-15 05:33:00,64.0,60.0,-100.00,ESE,110,2.0,14.0,87,0.00,,,0.02,0.000000,,2013-06-15 15:33:00,
2013-06-15 06:01:00,62.0,56.0,-100.00,WNW,299,5.0,17.0,82,0.00,,,-99.99,0.000000,,2013-06-15 16:01:00,
2013-06-15 06:11:00,62.0,56.0,-100.00,WNW,299,5.0,17.0,82,0.00,,,-99.99,0.000000,,2013-06-15 16:11:00,
2013-06-15 06:22:00,62.0,56.0,-100.00,WNW,299,5.0,17.0,82,0.00,,,-99.99,0.000000,,2013-06-15 16:22:00,
2013-06-15 06:33:00,62.0,56.0,-100.00,WNW,299,5.0,17.0,82,0.00,,,-99.99,0.000000,,2013-06-15 16:33:00,
2013-06-15 07:02:00,63.0,58.0,-100.00,East,88,5.0,13.0,83,0.00,,,0.00,24.000000,,2013-06-15 17:02:00,
2013-06-15 07:11:00,63.0,58.0,-100.00,East,88,5.0,13.0,83,0.00,,,0.00,24.000000,,2013-06-15 17:11:00,
2013-06-15 07:21:00,63.0,58.0,-100.00,East,88,5.0,13.0,83,0.00,,,0.00,24.000000,,2013-06-15 17:21:00,
2013-06-15 07:32:00,63.0,58.0,-100.00,East,88,5.0,13.0,83,0.00,,,0.00,24.000000,,2013-06-15 17:32:00,
2013-06-15 08:01:00,69.0,61.0,-100.00,SW,221,4.0,18.0,77,0.00,,,0.00,245.000000,,2013-06-15 18:01:00,
2013-06-15 08:11:00,69.0,61.0,-100.00,SW,221,4.0,18.0,77,0.00,,,0.00,245.000000,,2013-06-15 18:11:00,
2013-06-15 08:22:00,69.0,61.0,-100.00,SW,221,4.0,18.0,77,0.00,,,0.00,245.000000,,2013-06-15 18:22:00,
2013-06-15 08:32:00,69.0,61.0,-100.00,SW,221,4.0,18.0,77,0.00,,,0.00,245.000000,,2013-06-15 18:32:00,
2013-06-15 09:01:00,73.0,59.0,-100.00,NNE,19,4.0,18.0,62,0.00,,,0.00,775.000000,,2013-06-15 19:01:00,
2013-06-15 09:11:00,73.0,59.0,-100.00,NNE,19,4.0,18.0,62,0.00,,,0.00,775.000000,,2013-06-15 19:11:00,
2013-06-15 09:22:00,73.0,59.0,-100.00,NNE,19,4.0,18.0,62,0.00,,,0.00,775.000000,,2013-06-15 19:22:00,
2013-06-15 09:32:00,73.0,59.0,-100.00,NNE,19,4.0,18.0,62,0.00,,,0.00,775.000000,,2013-06-15 19:32:00,
2013-06-15 10:02:00,72.0,60.0,-100.00,NNW,335,4.0,20.0,67,0.00,,,0.00,1008.000000,,2013-06-15 20:02:00,
2013-06-15 10:11:00,72.0,60.0,-100.00,NNW,335,4.0,20.0,67,0.00,,,0.00,1008.000000,,2013-06-15 20:11:00,
2013-06-15 10:22:00,72.0,60.0,-100.00,NNW,335,4.0,20.0,67,0.00,,,0.00,1008.000000,,2013-06-15 20:22:00,
2013-06-15 10:33:00,72.0,60.0,-100.00,NNW,335,4.0,20.0,67,0.00,,,0.00,1008.000000,,2013-06-15 20:33:00,
2013-06-15 11:01:00,73.0,61.0,-100.00,East,87,5.0,17.0,67,0.00,,,0.00,1060.000000,,2013-06-15 21:01:00,
2013-06-15 11:11:00,73.0,61.0,-100.00,East,87,5.0,17.0,67,0.00,,,0.00,1060.000000,,2013-06-15 21:11:00,
2013-06-15 11:22:00,73.0,61.0,-100.00,East,87,5.0,17.0,67,0.00,,,0.00,1060.000000,,2013-06-15 21:22:00,
2013-06-15 11:33:00,73.0,61.0,-100.00,East,87,5.0,17.0,67,0.00,,,0.00,1060.000000,,2013-06-15 21:33:00,
2013-06-15 12:01:00,74.0,60.0,-100.00,NNW,337,3.0,22.0,61,0.00,,,0.00,1063.000000,,2013-06-15 22:01:00,
2013-06-15 12:11:00,74.0,60.0,-100.00,NNW,337,3.0,22.0,61,0.00,,,0.00,1063.000000,,2013-06-15 22:11:00,
2013-06-15 12:22:00,74.0,60.0,-100.00,NNW,337,3.0,22.0,61,0.00,,,0.00,1063.000000,,2013-06-15 22:22:00,
2013-06-15 12:32:00,74.0,60.0,-100.00,NNW,337,3.0,22.0,61,0.00,,,0.00,1063.000000,,2013-06-15 22:32:00,
2013-06-15 13:02:00,73.0,60.0,-100.00,NE,50,6.0,16.0,63,0.00,,,0.00,977.000000,,2013-06-15 23:02:00,
2013-06-15 13:11:00,73.0,60.0,-100.00,NE,50,6.0,16.0,63,0.00,,,0.00,977.000000,,2013-06-15 23:11:00,
2013-06-15 13:22:00,73.0,60.0,-100.00,NE,50,6.0,16.0,63,0.00,,,0.00,977.000000,,2013-06-15 23:22:00,
2013-06-15 13:33:00,73.0,60.0,-100.00,NE,50,6.0,16.0,63,0.00,,,0.00,977.000000,,2013-06-15 23:33:00,
2013-06-15 14:01:00,75.0,62.0,-100.00,SW,234,4.0,15.0,63,0.00,,,0.00,863.000000,,2013-06-16 00:01:00,
2013-06-15 14:11:00,75.0,62.0,-100.00,SW,234,4.0,15.0,63,0.00,,,0.00,863.000000,,2013-06-16 00:11:00,
2013-06-15 14:22:00,75.0,62.0,-100.00,SW,234,4.0,15.0,63,0.00,,,0.00,863.000000,,2013-06-16 00:22:00,
2013-06-15 14:33:00,75.0,62.0,-100.00,SW,234,4.0,15.0,63,0.00,,,0.00,863.000000,,2013-06-16 00:33:00,
2013-06-15 15:01:00,75.0,61.0,-100.00,ENE,66,5.0,16.0,61,0.00,,,0.00,969.000000,,2013-06-16 01:01:00,
2013-06-15 15:11:00,75.0,61.0,-100.00,ENE,66,5.0,16.0,61,0.00,,,0.00,969.000000,,2013-06-16 01:11:00,
2013-06-15 15:22:00,75.0,61.0,-100.00,ENE,66,5.0,16.0,61,0.00,,,0.00,969.000000,,2013-06-16 01:22:00,
2013-06-15 15:33:00,75.0,61.0,-100.00,ENE,66,5.0,16.0,61,0.00,,,0.00,969.000000,,2013-06-16 01:33:00,
2013-06-15 15:53:00,75.0,62.0,-100.00,North,359,5.0,19.0,63,0.00,,,0.00,1258.000000,,2013-06-16 01:53:00,
2013-06-15 16:01:00,75.0,62.0,-100.00,North,359,5.0,19.0,63,0.00,,,0.00,1258.000000,,2013-06-16 02:01:00,
2013-06-15 16:12:00,75.0,62.0,-100.00,North,359,5.0,19.0,63,0.00,,,0.00,1258.000000,,2013-06-16 02:12:00,
2013-06-15 16:22:00,75.0,62.0,-100.00,North,359,5.0,19.0,63,0.00,,,0.00,1258.000000,,2013-06-16 02:22:00,
2013-06-15 16:33:00,75.0,62.0,-100.00,North,359,5.0,19.0,63,0.00,,,0.00,1258.000000,,2013-06-16 02:33:00,
2013-06-15 17:02:00,73.0,61.0,-100.00,ENE,67,6.0,21.0,65,0.00,,,0.00,848.000000,,2013-06-16 03:02:00,
2013-06-15 17:11:00,73.0,61.0,-100.00,ENE,67,6.0,21.0,65,0.00,,,0.00,848.000000,,2013-06-16 03:11:00,
2013-06-15 17:22:00,73.0,61.0,-100.00,ENE,67,6.0,21.0,65,0.00,,,0.00,848.000000,,2013-06-16 03:22:00,
2013-06-15 17:33:00,73.0,61.0,-100.00,ENE,67,6.0,21.0,65,0.00,,,0.00,848.000000,,2013-06-16 03:33:00,
2013-06-15 18:01:00,72.0,60.0,-100.00,ESE,114,6.0,20.0,67,0.00,,,0.00,128.000000,,2013-06-16 04:01:00,
2013-06-15 18:12:00,72.0,60.0,-100.00,ESE,114,6.0,20.0,67,0.00,,,0.00,128.000000,,2013-06-16 04:12:00,
2013-06-15 18:23:00,72.0,60.0,-100.00,ESE,114,6.0,20.0,67,0.00,,,0.00,128.000000,,2013-06-16 04:23:00,
2013-06-15 18:33:00,72.0,60.0,-100.00,ESE,114,6.0,20.0,67,0.00,,,0.00,128.000000,,2013-06-16 04:33:00,
2013-06-15 19:01:00,67.0,59.0,-100.00,NE,56,6.0,18.0,76,0.00,,,0.00,88.000000,,2013-06-16 05:01:00,
2013-06-15 19:11:00,67.0,59.0,-100.00,NE,56,6.0,18.0,76,0.00,,,0.00,88.000000,,2013-06-16 05:11:00,
2013-06-15 19:22:00,67.0,59.0,-100.00,NE,56,6.0,18.0,76,0.00,,,0.00,88.000000,,2013-06-16 05:22:00,
2013-06-15 19:33:00,67.0,59.0,-100.00,NE,56,6.0,18.0,76,0.00,,,0.00,88.000000,,2013-06-16 05:33:00,
2013-06-15 20:01:00,64.0,58.0,-100.00,NE,45,9.0,30.0,81,0.00,,,0.00,8.000000,,2013-06-16 06:01:00,
2013-06-15 20:11:00,64.0,58.0,-100.00,NE,45,9.0,30.0,81,0.00,,,0.00,8.000000,,2013-06-16 06:11:00,
2013-06-15 20:22:00,64.0,58.0,-100.00,NE,45,9.0,30.0,81,0.00,,,0.00,8.000000,,2013-06-16 06:22:00,
2013-06-15 20:33:00,64.0,58.0,-100.00,NE,45,9.0,30.0,81,0.00,,,0.00,8.000000,,2013-06-16 06:33:00,
2013-06-15 21:01:00,65.0,60.0,-100.00,SE,129,5.0,17.0,84,0.00,,,0.00,0.000000,,2013-06-16 07:01:00,
2013-06-15 21:11:00,65.0,60.0,-100.00,SE,129,5.0,17.0,84,0.00,,,0.00,0.000000,,2013-06-16 07:11:00,
2013-06-15 21:22:00,65.0,60.0,-100.00,SE,129,5.0,17.0,84,0.00,,,0.00,0.000000,,2013-06-16 07:22:00,
2013-06-15 21:32:00,65.0,60.0,-100.00,SE,129,5.0,17.0,84,0.00,,,0.00,0.000000,,2013-06-16 07:32:00,
2013-06-15 22:02:00,65.0,60.0,-100.00,NE,37,6.0,17.0,84,0.00,,,-99.99,0.000000,,2013-06-16 08:02:00,
2013-06-15 22:11:00,65.0,60.0,-100.00,NE,37,6.0,17.0,84,0.00,,,-99.99,0.000000,,2013-06-16 08:11:00,
2013-06-15 22:22:00,65.0,60.0,-100.00,NE,37,6.0,17.0,84,0.00,,,-99.99,0.000000,,2013-06-16 08:22:00,
2013-06-15 22:33:00,65.0,60.0,-100.00,NE,37,6.0,17.0,84,0.00,,,-99.99,0.000000,,2013-06-16 08:33:00,
2013-06-15 23:01:00,64.0,59.0,-100.00,South,191,3.0,18.0,85,0.00,,,0.00,0.000000,,2013-06-16 09:01:00,
2013-06-15 23:11:00,64.0,59.0,-100.00,South,191,3.0,18.0,85,0.00,,,0.00,0.000000,,2013-06-16 09:11:00,
2013-06-15 23:22:00,64.0,59.0,-100.00,South,191,3.0,18.0,85,0.00,,,0.00,0.000000,,2013-06-16 09:22:00,
2013-06-15 23:33:00,64.0,59.0,-100.00,South,191,3.0,18.0,85,0.00,,,0.00,0.000000,,2013-06-16 09:33:00,